createdAt,value
2016-06-02T00:00:00.626Z,19.39
2016-06-02T00:00:10.845Z,19.4
2016-06-02T00:00:20.782Z,19.4
2016-06-02T00:00:30.816Z,19.4
2016-06-02T00:00:40.848Z,19.4
2016-06-02T00:00:50.848Z,19.39
2016-06-02T00:01:00.816Z,19.44
2016-06-02T00:01:10.848Z,19.36
2016-06-02T00:01:20.676Z,19.4
2016-06-02T00:01:30.679Z,19.43
2016-06-02T00:01:40.835Z,19.33
2016-06-02T00:01:50.866Z,19.33
2016-06-02T00:02:00.835Z,19.44
2016-06-02T00:02:10.897Z,19.4
2016-06-02T00:02:20.882Z,19.33
2016-06-02T00:02:30.869Z,19.36
2016-06-02T00:02:40.713Z,19.36
2016-06-02T00:02:50.791Z,19.39
2016-06-02T00:03:00.869Z,19.43
2016-06-02T00:03:10.885Z,19.4
2016-06-02T00:03:20.885Z,19.43
2016-06-02T00:03:30.902Z,19.31
2016-06-02T00:03:40.902Z,19.4
2016-06-02T00:03:50.996Z,19.36
2016-06-02T00:04:01.027Z,19.44
2016-06-02T00:04:10.918Z,19.32
2016-06-02T00:04:20.918Z,19.39
2016-06-02T00:04:30.937Z,19.32
2016-06-02T00:04:40.796Z,19.31
2016-06-02T00:04:51.093Z,19.41
2016-06-02T00:05:00.984Z,19.43
2016-06-02T00:05:10.952Z,19.36
2016-06-02T00:05:20.952Z,19.36
2016-06-02T00:05:30.970Z,19.39
2016-06-02T00:05:41.407Z,19.43
2016-06-02T00:05:51.626Z,19.41
2016-06-02T00:06:00.986Z,19.37
2016-06-02T00:06:11.017Z,19.4
2016-06-02T00:06:20.986Z,19.4
2016-06-02T00:06:30.848Z,19.33
2016-06-02T00:06:41.020Z,19.37
2016-06-02T00:06:51.020Z,19.32
2016-06-02T00:07:01.020Z,19.33
2016-06-02T00:07:11.051Z,19.36
2016-06-02T00:07:21.035Z,19.36
2016-06-02T00:07:31.038Z,19.5
2016-06-02T00:07:41.070Z,19.4
2016-06-02T00:07:51.273Z,19.36
2016-06-02T00:08:01.054Z,19.32
2016-06-02T00:08:11.054Z,19.37
2016-06-02T00:08:20.913Z,19.37
2016-06-02T00:08:31.073Z,19.36
2016-06-02T00:08:41.073Z,19.43
2016-06-02T00:08:51.088Z,19.36
2016-06-02T00:09:00.932Z,19.4
2016-06-02T00:09:11.088Z,19.39
2016-06-02T00:09:21.291Z,19.47
2016-06-02T00:09:31.107Z,19.33
2016-06-02T00:09:41.638Z,19.31
2016-06-02T00:09:51.154Z,19.31
2016-06-02T00:10:01.138Z,19.33
2016-06-02T00:10:11.123Z,19.41
2016-06-02T00:10:21.201Z,19.28
2016-06-02T00:10:31.140Z,19.37
2016-06-02T00:10:41.250Z,19.32
2016-06-02T00:10:51.375Z,19.33
2016-06-02T00:11:01.156Z,19.33
2016-06-02T00:11:11.156Z,19.43
2016-06-02T00:11:21.156Z,19.4
2016-06-02T00:11:31.173Z,19.36
2016-06-02T00:11:41.283Z,19.32
2016-06-02T00:11:51.220Z,19.32
2016-06-02T00:12:01.189Z,19.32
2016-06-02T00:12:11.205Z,19.29
2016-06-02T00:12:21.314Z,19.43
2016-06-02T00:12:31.209Z,19.39
2016-06-02T00:12:41.209Z,19.31
2016-06-02T00:12:51.224Z,19.32
2016-06-02T00:13:01.068Z,19.33
2016-06-02T00:13:11.224Z,19.29
2016-06-02T00:13:21.240Z,19.32
2016-06-02T00:13:31.086Z,19.39
2016-06-02T00:13:41.258Z,19.41
2016-06-02T00:13:51.258Z,19.39
2016-06-02T00:14:01.258Z,19.36
2016-06-02T00:14:11.258Z,19.33
2016-06-02T00:14:21.273Z,19.39
2016-06-02T00:14:31.276Z,19.4
2016-06-02T00:14:41.276Z,19.43
2016-06-02T00:14:51.339Z,19.32
2016-06-02T00:15:01.136Z,19.36
2016-06-02T00:15:11.292Z,19.39
2016-06-02T00:15:21.307Z,19.32
2016-06-02T00:15:31.309Z,19.39
2016-06-02T00:15:41.309Z,19.37
2016-06-02T00:15:51.169Z,19.39
2016-06-02T00:16:01.325Z,19.31
2016-06-02T00:16:11.341Z,19.36
2016-06-02T00:16:21.341Z,19.33
2016-06-02T00:16:31.359Z,19.33
2016-06-02T00:16:41.359Z,19.41
2016-06-02T00:16:51.359Z,19.32
2016-06-02T00:17:01.359Z,19.36
2016-06-02T00:17:11.359Z,19.4
2016-06-02T00:17:21.375Z,19.28
2016-06-02T00:17:31.440Z,19.37
2016-06-02T00:17:41.394Z,19.43
2016-06-02T00:17:51.394Z,19.31
2016-06-02T00:18:01.394Z,19.44
2016-06-02T00:18:11.394Z,19.39
2016-06-02T00:18:21.409Z,19.31
2016-06-02T00:18:31.412Z,19.44
2016-06-02T00:18:41.272Z,19.31
2016-06-02T00:18:51.428Z,19.33
2016-06-02T00:19:01.443Z,19.33
2016-06-02T00:19:11.428Z,19.36
2016-06-02T00:19:21.443Z,19.25
2016-06-02T00:19:31.445Z,19.37
2016-06-02T00:19:41.445Z,19.41
2016-06-02T00:19:51.461Z,19.39
2016-06-02T00:20:01.461Z,19.41
2016-06-02T00:20:11.461Z,19.28
2016-06-02T00:20:21.320Z,19.31
2016-06-02T00:20:31.480Z,19.31
2016-06-02T00:20:41.480Z,19.36
2016-06-02T00:20:51.495Z,19.29
2016-06-02T00:21:01.495Z,19.39
2016-06-02T00:21:11.511Z,19.28
2016-06-02T00:21:21.511Z,19.32
2016-06-02T00:21:31.514Z,19.32
2016-06-02T00:21:41.514Z,19.26
2016-06-02T00:21:51.530Z,19.36
2016-06-02T00:22:01.530Z,19.36
2016-06-02T00:22:11.389Z,19.21
2016-06-02T00:22:21.545Z,19.23
2016-06-02T00:22:31.547Z,19.25
2016-06-02T00:22:41.391Z,19.29
2016-06-02T00:22:51.407Z,19.28
2016-06-02T00:23:01.563Z,19.25
2016-06-02T00:23:11.578Z,19.26
2016-06-02T00:23:21.578Z,19.29
2016-06-02T00:23:31.581Z,19.23
2016-06-02T00:23:41.456Z,19.28
2016-06-02T00:23:51.597Z,19.31
2016-06-02T00:24:01.597Z,19.25
2016-06-02T00:24:11.628Z,19.19
2016-06-02T00:24:21.472Z,19.29
2016-06-02T00:24:31.616Z,19.29
2016-06-02T00:24:41.866Z,19.23
2016-06-02T00:24:51.631Z,19.22
2016-06-02T00:25:01.631Z,19.29
2016-06-02T00:25:11.866Z,19.28
2016-06-02T00:25:22.475Z,19.21
2016-06-02T00:25:31.649Z,19.16
2016-06-02T00:25:42.133Z,19.19
2016-06-02T00:25:51.665Z,19.19
2016-06-02T00:26:01.665Z,19.23
2016-06-02T00:26:11.680Z,19.21
2016-06-02T00:26:21.680Z,19.19
2016-06-02T00:26:31.683Z,19.13
2016-06-02T00:26:41.714Z,19.18
2016-06-02T00:26:51.699Z,19.16
2016-06-02T00:27:01.714Z,19.13
2016-06-02T00:27:11.714Z,19.16
2016-06-02T00:27:21.730Z,19.16
2016-06-02T00:27:31.717Z,19.14
2016-06-02T00:27:41.733Z,19.13
2016-06-02T00:27:51.733Z,19.16
2016-06-02T00:28:01.733Z,19.14
2016-06-02T00:28:11.749Z,19.18
2016-06-02T00:28:21.764Z,19.14
2016-06-02T00:28:31.751Z,19.13
2016-06-02T00:28:41.610Z,19.16
2016-06-02T00:28:51.610Z,19.18
2016-06-02T00:29:01.782Z,19.18
2016-06-02T00:29:11.782Z,19.13
2016-06-02T00:29:21.782Z,19.21
2016-06-02T00:29:31.645Z,19.04
2016-06-02T00:29:41.802Z,19.11
2016-06-02T00:29:51.802Z,19.1
2016-06-02T00:30:01.817Z,19.19
2016-06-02T00:30:11.817Z,19.19
2016-06-02T00:30:21.817Z,19.16
2016-06-02T00:30:31.835Z,19.08
2016-06-02T00:30:41.850Z,19.21
2016-06-02T00:30:51.835Z,19.1
2016-06-02T00:31:01.835Z,19.21
2016-06-02T00:31:11.850Z,19.16
2016-06-02T00:31:21.850Z,19.14
2016-06-02T00:31:31.868Z,19.14
2016-06-02T00:31:41.868Z,19.1
2016-06-02T00:31:51.868Z,19.07
2016-06-02T00:32:01.884Z,19.16
2016-06-02T00:32:11.899Z,19.19
2016-06-02T00:32:21.884Z,19.14
2016-06-02T00:32:31.902Z,19.14
2016-06-02T00:32:41.902Z,19.13
2016-06-02T00:32:51.902Z,19.02
2016-06-02T00:33:01.902Z,19.08
2016-06-02T00:33:11.918Z,19.18
2016-06-02T00:33:21.934Z,19.07
2016-06-02T00:33:31.921Z,19.08
2016-06-02T00:33:41.952Z,19.08
2016-06-02T00:33:51.937Z,19.21
2016-06-02T00:34:01.952Z,19.07
2016-06-02T00:34:11.952Z,19.1
2016-06-02T00:34:21.968Z,19.11
2016-06-02T00:34:31.955Z,19.1
2016-06-02T00:34:41.971Z,19.1
2016-06-02T00:34:51.971Z,19.14
2016-06-02T00:35:01.986Z,19.1
2016-06-02T00:35:11.986Z,19.11
2016-06-02T00:35:22.002Z,19.07
2016-06-02T00:35:31.848Z,19.1
2016-06-02T00:35:42.004Z,19.06
2016-06-02T00:35:52.004Z,19.06
2016-06-02T00:36:02.004Z,19.13
2016-06-02T00:36:12.020Z,19.08
2016-06-02T00:36:21.879Z,19.02
2016-06-02T00:36:32.023Z,19.04
2016-06-02T00:36:42.038Z,19.02
2016-06-02T00:36:52.038Z,19.13
2016-06-02T00:37:02.054Z,19.02
2016-06-02T00:37:11.898Z,19.06
2016-06-02T00:37:22.054Z,19.08
2016-06-02T00:37:32.073Z,19.02
2016-06-02T00:37:42.073Z,19.11
2016-06-02T00:37:52.088Z,19.06
2016-06-02T00:38:02.073Z,18.98
2016-06-02T00:38:12.088Z,18.99
2016-06-02T00:38:22.088Z,19.06
2016-06-02T00:38:31.951Z,19.08
2016-06-02T00:38:42.122Z,19.04
2016-06-02T00:38:52.107Z,18.99
2016-06-02T00:39:02.122Z,19.02
2016-06-02T00:39:11.966Z,19.06
2016-06-02T00:39:22.122Z,19.04
2016-06-02T00:39:32.734Z,19.11
2016-06-02T00:39:41.984Z,19
2016-06-02T00:39:52.281Z,19.04
2016-06-02T00:40:02.156Z,19.07
2016-06-02T00:40:12.796Z,19.06
2016-06-02T00:40:22.156Z,19.1
2016-06-02T00:40:32.018Z,19.04
2016-06-02T00:40:42.174Z,19.07
2016-06-02T00:40:52.174Z,19.06
2016-06-02T00:41:02.174Z,19.08
2016-06-02T00:41:12.190Z,19.07
2016-06-02T00:41:22.206Z,19
2016-06-02T00:41:32.208Z,19.07
2016-06-02T00:41:42.208Z,19.06
2016-06-02T00:41:52.223Z,19.07
2016-06-02T00:42:02.161Z,19.02
2016-06-02T00:42:12.348Z,19.08
2016-06-02T00:42:22.348Z,19.06
2016-06-02T00:42:32.367Z,19.16
2016-06-02T00:42:42.211Z,19.04
2016-06-02T00:42:52.336Z,19.1
2016-06-02T00:43:02.429Z,19
2016-06-02T00:43:12.351Z,19.07
2016-06-02T00:43:22.242Z,19.06
2016-06-02T00:43:32.401Z,19.04
2016-06-02T00:43:42.401Z,19.07
2016-06-02T00:43:52.385Z,19.06
2016-06-02T00:44:02.448Z,19.02
2016-06-02T00:44:12.448Z,19.04
2016-06-02T00:44:22.401Z,19.08
2016-06-02T00:44:32.435Z,19.08
2016-06-02T00:44:42.451Z,19.02
2016-06-02T00:44:52.404Z,18.95
2016-06-02T00:45:02.451Z,19.08
2016-06-02T00:45:12.404Z,19.06
2016-06-02T00:45:22.420Z,19.02
2016-06-02T00:45:32.453Z,19.1
2016-06-02T00:45:42.500Z,19.02
2016-06-02T00:45:52.453Z,19.11
2016-06-02T00:46:02.359Z,19.04
2016-06-02T00:46:12.500Z,19.04
2016-06-02T00:46:22.531Z,18.99
2016-06-02T00:46:32.503Z,19.04
2016-06-02T00:46:42.503Z,18.95
2016-06-02T00:46:52.362Z,19.07
2016-06-02T00:47:02.393Z,19.07
2016-06-02T00:47:12.393Z,19.04
2016-06-02T00:47:22.393Z,19
2016-06-02T00:47:32.412Z,18.99
2016-06-02T00:47:42.412Z,19.04
2016-06-02T00:47:52.412Z,18.98
2016-06-02T00:48:02.428Z,19.07
2016-06-02T00:48:12.428Z,19.1
2016-06-02T00:48:22.428Z,19
2016-06-02T00:48:32.445Z,18.99
2016-06-02T00:48:42.445Z,19.13
2016-06-02T00:48:52.305Z,19.06
2016-06-02T00:49:02.305Z,19.1
2016-06-02T00:49:12.461Z,18.92
2016-06-02T00:49:22.461Z,18.95
2016-06-02T00:49:32.480Z,18.94
2016-06-02T00:49:42.480Z,18.94
2016-06-02T00:49:52.480Z,18.99
2016-06-02T00:50:02.495Z,19.02
2016-06-02T00:50:12.495Z,18.9
2016-06-02T00:50:22.495Z,19.02
2016-06-02T00:50:32.514Z,18.95
2016-06-02T00:50:42.514Z,19.04
2016-06-02T00:50:52.373Z,18.99
2016-06-02T00:51:02.529Z,19.06
2016-06-02T00:51:12.529Z,18.98
2016-06-02T00:51:22.545Z,18.94
2016-06-02T00:51:32.548Z,18.94
2016-06-02T00:51:42.564Z,19.06
2016-06-02T00:51:52.548Z,19.07
2016-06-02T00:52:02.407Z,19
2016-06-02T00:52:12.564Z,18.95
2016-06-02T00:52:22.407Z,19.06
2016-06-02T00:52:32.581Z,19.06
2016-06-02T00:52:42.581Z,18.94
2016-06-02T00:52:52.597Z,19.02
2016-06-02T00:53:02.597Z,19.06
2016-06-02T00:53:12.597Z,18.99
2016-06-02T00:53:22.613Z,18.98
2016-06-02T00:53:32.616Z,18.94
2016-06-02T00:53:42.616Z,19
2016-06-02T00:53:52.631Z,19.06
2016-06-02T00:54:02.631Z,19
2016-06-02T00:54:12.631Z,18.99
2016-06-02T00:54:23.553Z,18.95
2016-06-02T00:54:32.650Z,19
2016-06-02T00:54:42.650Z,18.98
2016-06-02T00:54:52.509Z,19.07
2016-06-02T00:55:02.665Z,19
2016-06-02T00:55:12.665Z,18.98
2016-06-02T00:55:22.556Z,19.02
2016-06-02T00:55:32.683Z,18.92
2016-06-02T00:55:42.917Z,18.98
2016-06-02T00:55:52.699Z,18.92
2016-06-02T00:56:02.699Z,19.06
2016-06-02T00:56:12.699Z,18.95
2016-06-02T00:56:22.714Z,19.04
2016-06-02T00:56:32.717Z,19.02
2016-06-02T00:56:42.561Z,18.98
2016-06-02T00:56:52.577Z,19.02
2016-06-02T00:57:02.592Z,19.02
2016-06-02T00:57:12.733Z,19
2016-06-02T00:57:22.733Z,18.94
2016-06-02T00:57:32.751Z,19.04
2016-06-02T00:57:42.751Z,18.95
2016-06-02T00:57:52.766Z,19
2016-06-02T00:58:02.766Z,19.02
2016-06-02T00:58:12.782Z,18.91
2016-06-02T00:58:22.782Z,19.07
2016-06-02T00:58:32.785Z,18.98
2016-06-02T00:58:42.644Z,19.06
2016-06-02T00:58:52.785Z,18.98
2016-06-02T00:59:02.800Z,18.98
2016-06-02T00:59:12.800Z,19.04
2016-06-02T00:59:22.800Z,18.92
2016-06-02T00:59:32.819Z,18.95
2016-06-02T00:59:42.819Z,19
2016-06-02T00:59:52.819Z,19.02
2016-06-02T01:00:02.678Z,19
2016-06-02T01:00:12.835Z,18.98
2016-06-02T01:00:22.694Z,18.94
2016-06-02T01:00:32.869Z,18.98
2016-06-02T01:00:42.853Z,18.95
2016-06-02T01:00:52.697Z,18.94
2016-06-02T01:01:02.869Z,18.9
2016-06-02T01:01:12.728Z,19.04
2016-06-02T01:01:22.869Z,19.06
2016-06-02T01:01:32.887Z,19
2016-06-02T01:01:42.887Z,19.04
2016-06-02T01:01:52.902Z,19.06
2016-06-02T01:02:02.902Z,18.98
2016-06-02T01:02:12.902Z,19.02
2016-06-02T01:02:22.918Z,19.06
2016-06-02T01:02:32.921Z,18.94
2016-06-02T01:02:42.921Z,19.02
2016-06-02T01:02:52.936Z,18.94
2016-06-02T01:03:02.936Z,18.92
2016-06-02T01:03:12.936Z,18.98
2016-06-02T01:03:22.952Z,19.04
2016-06-02T01:03:32.955Z,19.06
2016-06-02T01:03:42.799Z,18.99
2016-06-02T01:03:52.971Z,18.91
2016-06-02T01:04:02.986Z,18.98
2016-06-02T01:04:12.971Z,18.98
2016-06-02T01:04:22.971Z,19.02
2016-06-02T01:04:32.988Z,19
2016-06-02T01:04:42.988Z,18.98
2016-06-02T01:04:52.988Z,19.07
2016-06-02T01:05:03.004Z,18.95
2016-06-02T01:05:13.004Z,19.07
2016-06-02T01:05:23.004Z,19
2016-06-02T01:05:33.023Z,19
2016-06-02T01:05:43.023Z,19.04
2016-06-02T01:05:53.038Z,18.94
2016-06-02T01:06:03.038Z,19
2016-06-02T01:06:13.038Z,19
2016-06-02T01:06:23.038Z,18.92
2016-06-02T01:06:33.057Z,19.06
2016-06-02T01:06:43.057Z,18.95
2016-06-02T01:06:53.072Z,18.88
2016-06-02T01:07:03.072Z,19.02
2016-06-02T01:07:13.072Z,19.02
2016-06-02T01:07:23.072Z,18.95
2016-06-02T01:07:33.106Z,19.02
2016-06-02T01:07:43.090Z,18.92
2016-06-02T01:07:53.090Z,18.91
2016-06-02T01:08:03.106Z,19.02
2016-06-02T01:08:13.106Z,18.98
2016-06-02T01:08:23.106Z,19.04
2016-06-02T01:08:33.124Z,19.11
2016-06-02T01:08:42.968Z,19.08
2016-06-02T01:08:52.984Z,19
2016-06-02T01:09:03.140Z,18.98
2016-06-02T01:09:13.140Z,19.14
2016-06-02T01:09:23.156Z,18.99
2016-06-02T01:09:33.159Z,18.94
2016-06-02T01:09:43.159Z,19.13
2016-06-02T01:09:53.284Z,18.95
2016-06-02T01:10:03.018Z,19.07
2016-06-02T01:10:13.174Z,19
2016-06-02T01:10:23.455Z,18.99
2016-06-02T01:10:33.661Z,19.06
2016-06-02T01:10:43.192Z,18.99
2016-06-02T01:10:53.192Z,18.94
2016-06-02T01:11:03.207Z,18.95
2016-06-02T01:11:13.207Z,19.02
2016-06-02T01:11:23.207Z,18.99
2016-06-02T01:11:33.226Z,18.99
2016-06-02T01:11:43.226Z,19.06
2016-06-02T01:11:53.226Z,18.94
2016-06-02T01:12:03.085Z,19.02
2016-06-02T01:12:13.085Z,19.04
2016-06-02T01:12:23.242Z,19.06
2016-06-02T01:12:33.260Z,18.94
2016-06-02T01:12:43.260Z,18.99
2016-06-02T01:12:53.276Z,19
2016-06-02T01:13:03.120Z,18.99
2016-06-02T01:13:13.276Z,19.06
2016-06-02T01:13:23.292Z,18.94
2016-06-02T01:13:33.310Z,19.04
2016-06-02T01:13:43.295Z,18.91
2016-06-02T01:13:53.154Z,18.99
2016-06-02T01:14:03.310Z,19.02
2016-06-02T01:14:13.326Z,19.02
2016-06-02T01:14:23.185Z,18.99
2016-06-02T01:14:33.329Z,18.91
2016-06-02T01:14:43.188Z,19.04
2016-06-02T01:14:53.344Z,18.92
2016-06-02T01:15:03.344Z,19.06
2016-06-02T01:15:13.344Z,19
2016-06-02T01:15:23.344Z,19
2016-06-02T01:15:33.362Z,18.95
2016-06-02T01:15:43.362Z,18.99
2016-06-02T01:15:53.378Z,18.9
2016-06-02T01:16:03.378Z,19.02
2016-06-02T01:16:13.393Z,18.95
2016-06-02T01:16:23.393Z,19
2016-06-02T01:16:33.396Z,19.04
2016-06-02T01:16:43.396Z,19.07
2016-06-02T01:16:53.412Z,18.99
2016-06-02T01:17:03.428Z,18.92
2016-06-02T01:17:13.256Z,18.99
2016-06-02T01:17:23.271Z,19.02
2016-06-02T01:17:33.431Z,18.99
2016-06-02T01:17:43.431Z,18.94
2016-06-02T01:17:53.446Z,19.02
2016-06-02T01:18:03.446Z,19.02
2016-06-02T01:18:13.462Z,19.02
2016-06-02T01:18:23.290Z,19.04
2016-06-02T01:18:33.464Z,19.02
2016-06-02T01:18:43.464Z,18.92
2016-06-02T01:18:53.464Z,19.02
2016-06-02T01:19:03.479Z,19
2016-06-02T01:19:13.479Z,18.9
2016-06-02T01:19:23.495Z,18.92
2016-06-02T01:19:33.498Z,18.99
2016-06-02T01:19:43.498Z,18.92
2016-06-02T01:19:53.514Z,18.91
2016-06-02T01:20:03.514Z,19
2016-06-02T01:20:13.357Z,18.94
2016-06-02T01:20:23.514Z,19.06
2016-06-02T01:20:33.532Z,19.02
2016-06-02T01:20:43.376Z,18.91
2016-06-02T01:20:53.532Z,19
2016-06-02T01:21:03.548Z,18.94
2016-06-02T01:21:13.392Z,18.94
2016-06-02T01:21:23.548Z,18.91
2016-06-02T01:21:33.566Z,18.99
2016-06-02T01:21:43.581Z,18.88
2016-06-02T01:21:53.566Z,19.02
2016-06-02T01:22:03.581Z,18.92
2016-06-02T01:22:13.597Z,19
2016-06-02T01:22:23.581Z,18.92
2016-06-02T01:22:33.600Z,18.99
2016-06-02T01:22:43.444Z,18.92
2016-06-02T01:22:53.600Z,18.9
2016-06-02T01:23:03.615Z,18.98
2016-06-02T01:23:13.615Z,18.98
2016-06-02T01:23:23.647Z,19.04
2016-06-02T01:23:33.493Z,18.94
2016-06-02T01:23:43.478Z,19
2016-06-02T01:23:53.478Z,18.94
2016-06-02T01:24:03.650Z,19.06
2016-06-02T01:24:13.650Z,19
2016-06-02T01:24:23.509Z,18.99
2016-06-02T01:24:33.668Z,18.98
2016-06-02T01:24:43.684Z,19.02
2016-06-02T01:24:53.809Z,18.99
2016-06-02T01:25:03.543Z,18.92
2016-06-02T01:25:13.700Z,18.92
2016-06-02T01:25:23.778Z,19.02
2016-06-02T01:25:33.561Z,19.02
2016-06-02T01:25:43.561Z,18.9
2016-06-02T01:25:53.717Z,18.98
2016-06-02T01:26:03.717Z,18.98
2016-06-02T01:26:13.733Z,18.95
2016-06-02T01:26:23.733Z,18.95
2016-06-02T01:26:33.736Z,18.94
2016-06-02T01:26:43.736Z,18.95
2016-06-02T01:26:53.751Z,18.94
2016-06-02T01:27:03.751Z,18.91
2016-06-02T01:27:13.751Z,18.9
2016-06-02T01:27:23.767Z,18.99
2016-06-02T01:27:33.770Z,18.9
2016-06-02T01:27:43.801Z,18.9
2016-06-02T01:27:53.770Z,18.92
2016-06-02T01:28:03.786Z,18.91
2016-06-02T01:28:13.786Z,18.9
2016-06-02T01:28:23.801Z,18.9
2016-06-02T01:28:33.803Z,18.91
2016-06-02T01:28:43.803Z,18.9
2016-06-02T01:28:53.803Z,18.88
2016-06-02T01:29:03.819Z,18.94
2016-06-02T01:29:13.819Z,18.92
2016-06-02T01:29:23.835Z,18.91
2016-06-02T01:29:33.838Z,18.88
2016-06-02T01:29:43.853Z,18.92
2016-06-02T01:29:53.853Z,18.87
2016-06-02T01:30:03.853Z,18.88
2016-06-02T01:30:13.697Z,18.91
2016-06-02T01:30:23.853Z,18.87
2016-06-02T01:30:33.716Z,18.9
2016-06-02T01:30:43.872Z,18.92
2016-06-02T01:30:53.872Z,18.88
2016-06-02T01:31:03.887Z,18.9
2016-06-02T01:31:13.887Z,18.9
2016-06-02T01:31:23.887Z,18.88
2016-06-02T01:31:33.905Z,18.9
2016-06-02T01:31:43.905Z,18.85
2016-06-02T01:31:53.905Z,18.73
2016-06-02T01:32:03.921Z,18.82
2016-06-02T01:32:13.921Z,18.85
2016-06-02T01:32:23.921Z,18.82
2016-06-02T01:32:33.939Z,18.87
2016-06-02T01:32:43.939Z,18.75
2016-06-02T01:32:53.939Z,18.82
2016-06-02T01:33:03.955Z,18.87
2016-06-02T01:33:13.955Z,18.76
2016-06-02T01:33:23.955Z,18.87
2016-06-02T01:33:33.974Z,18.76
2016-06-02T01:33:43.974Z,18.84
2016-06-02T01:33:53.989Z,18.78
2016-06-02T01:34:03.833Z,18.75
2016-06-02T01:34:13.989Z,18.76
2016-06-02T01:34:23.989Z,18.75
2016-06-02T01:34:34.007Z,18.76
2016-06-02T01:34:44.007Z,18.81
2016-06-02T01:34:54.022Z,18.85
2016-06-02T01:35:04.022Z,18.88
2016-06-02T01:35:14.038Z,18.76
2016-06-02T01:35:24.022Z,18.73
2016-06-02T01:35:34.041Z,18.81
2016-06-02T01:35:44.041Z,18.66
2016-06-02T01:35:54.041Z,18.84
2016-06-02T01:36:04.057Z,18.75
2016-06-02T01:36:14.057Z,18.72
2016-06-02T01:36:24.072Z,18.72
2016-06-02T01:36:34.075Z,18.82
2016-06-02T01:36:44.075Z,18.82
2016-06-02T01:36:54.075Z,18.69
2016-06-02T01:37:04.091Z,18.72
2016-06-02T01:37:14.091Z,18.78
2016-06-02T01:37:24.091Z,18.69
2016-06-02T01:37:34.109Z,18.7
2016-06-02T01:37:44.109Z,18.67
2016-06-02T01:37:54.109Z,18.73
2016-06-02T01:38:04.124Z,18.73
2016-06-02T01:38:13.968Z,18.72
2016-06-02T01:38:24.124Z,18.67
2016-06-02T01:38:34.143Z,18.63
2016-06-02T01:38:44.143Z,18.63
2016-06-02T01:38:54.158Z,18.63
2016-06-02T01:39:04.158Z,18.72
2016-06-02T01:39:14.158Z,18.63
2016-06-02T01:39:24.190Z,18.62
2016-06-02T01:39:34.021Z,18.63
2016-06-02T01:39:44.036Z,18.62
2016-06-02T01:39:54.380Z,18.57
2016-06-02T01:40:04.036Z,18.63
2016-06-02T01:40:14.318Z,18.67
2016-06-02T01:40:24.318Z,18.65
2016-06-02T01:40:34.399Z,18.66
2016-06-02T01:40:45.446Z,18.52
2016-06-02T01:40:54.227Z,18.62
2016-06-02T01:41:04.227Z,18.52
2016-06-02T01:41:14.227Z,18.57
2016-06-02T01:41:24.227Z,18.58
2016-06-02T01:41:34.245Z,18.52
2016-06-02T01:41:44.245Z,18.63
2016-06-02T01:41:54.260Z,18.57
2016-06-02T01:42:04.260Z,18.6
2016-06-02T01:42:14.260Z,18.6
2016-06-02T01:42:24.120Z,18.58
2016-06-02T01:42:34.279Z,18.65
2016-06-02T01:42:44.123Z,18.63
2016-06-02T01:42:54.294Z,18.45
2016-06-02T01:43:04.294Z,18.48
2016-06-02T01:43:14.294Z,18.48
2016-06-02T01:43:24.294Z,18.51
2016-06-02T01:43:34.313Z,18.47
2016-06-02T01:43:44.313Z,18.48
2016-06-02T01:43:54.313Z,18.42
2016-06-02T01:44:04.329Z,18.51
2016-06-02T01:44:14.329Z,18.44
2016-06-02T01:44:24.329Z,18.5
2016-06-02T01:44:34.346Z,18.5
2016-06-02T01:44:44.346Z,18.47
2016-06-02T01:44:54.362Z,18.54
2016-06-02T01:45:04.362Z,18.5
2016-06-02T01:45:14.362Z,18.48
2016-06-02T01:45:24.378Z,18.51
2016-06-02T01:45:34.381Z,18.44
2016-06-02T01:45:44.240Z,18.5
2016-06-02T01:45:54.381Z,18.42
2016-06-02T01:46:04.396Z,18.42
2016-06-02T01:46:14.396Z,18.41
2016-06-02T01:46:24.412Z,18.42
2016-06-02T01:46:34.398Z,18.52
2016-06-02T01:46:44.414Z,18.42
2016-06-02T01:46:54.414Z,18.37
2016-06-02T01:47:04.429Z,18.5
2016-06-02T01:47:14.429Z,18.42
2016-06-02T01:47:24.289Z,18.36
2016-06-02T01:47:34.448Z,18.36
2016-06-02T01:47:44.448Z,18.36
2016-06-02T01:47:54.464Z,18.39
2016-06-02T01:48:04.464Z,18.37
2016-06-02T01:48:14.307Z,18.41
2016-06-02T01:48:24.464Z,18.39
2016-06-02T01:48:34.482Z,18.37
2016-06-02T01:48:44.482Z,18.32
2016-06-02T01:48:54.514Z,18.35
2016-06-02T01:49:04.482Z,18.33
2016-06-02T01:49:14.498Z,18.41
2016-06-02T01:49:24.498Z,18.32
2016-06-02T01:49:34.359Z,18.41
2016-06-02T01:49:44.516Z,18.37
2016-06-02T01:49:54.516Z,18.39
2016-06-02T01:50:04.531Z,18.29
2016-06-02T01:50:14.531Z,18.29
2016-06-02T01:50:24.547Z,18.3
2016-06-02T01:50:34.550Z,18.29
2016-06-02T01:50:44.550Z,18.3
2016-06-02T01:50:54.565Z,18.29
2016-06-02T01:51:04.565Z,18.32
2016-06-02T01:51:14.565Z,18.3
2016-06-02T01:51:24.581Z,18.23
2016-06-02T01:51:34.584Z,18.3
2016-06-02T01:51:44.584Z,18.23
2016-06-02T01:51:54.584Z,18.29
2016-06-02T01:52:04.615Z,18.25
2016-06-02T01:52:14.443Z,18.21
2016-06-02T01:52:24.600Z,18.32
2016-06-02T01:52:34.618Z,18.32
2016-06-02T01:52:44.618Z,18.26
2016-06-02T01:52:54.618Z,18.21
2016-06-02T01:53:04.634Z,18.18
2016-06-02T01:53:14.634Z,18.17
2016-06-02T01:53:24.634Z,18.27
2016-06-02T01:53:34.652Z,18.23
2016-06-02T01:53:44.652Z,18.21
2016-06-02T01:53:54.652Z,18.21
2016-06-02T01:54:04.511Z,18.15
2016-06-02T01:54:14.667Z,18.26
2016-06-02T01:54:24.667Z,18.14
2016-06-02T01:54:34.530Z,18.2
2016-06-02T01:54:44.686Z,18.21
2016-06-02T01:54:55.123Z,18.18
2016-06-02T01:55:05.045Z,18.18
2016-06-02T01:55:14.920Z,18.17
2016-06-02T01:55:24.545Z,18.18
2016-06-02T01:55:35.094Z,18.15
2016-06-02T01:55:44.828Z,18.17
2016-06-02T01:55:54.891Z,18.15
2016-06-02T01:56:04.735Z,18.15
2016-06-02T01:56:14.578Z,18.17
2016-06-02T01:56:24.735Z,18.1
2016-06-02T01:56:34.754Z,18.18
2016-06-02T01:56:44.754Z,18.15
2016-06-02T01:56:54.754Z,18.1
2016-06-02T01:57:04.770Z,18.15
2016-06-02T01:57:14.770Z,18.08
2016-06-02T01:57:24.770Z,18.15
2016-06-02T01:57:34.787Z,18.02
2016-06-02T01:57:44.787Z,18.1
2016-06-02T01:57:54.787Z,18.08
2016-06-02T01:58:04.802Z,18.15
2016-06-02T01:58:14.802Z,18.14
2016-06-02T01:58:24.802Z,18.14
2016-06-02T01:58:34.822Z,18.11
2016-06-02T01:58:44.837Z,18.08
2016-06-02T01:58:54.822Z,18.08
2016-06-02T01:59:04.837Z,18.05
2016-06-02T01:59:14.837Z,18.08
2016-06-02T01:59:24.837Z,18.14
2016-06-02T01:59:34.839Z,18.1
2016-06-02T01:59:44.855Z,18.08
2016-06-02T01:59:54.699Z,18.07
2016-06-02T02:00:04.855Z,18.03
2016-06-02T02:00:14.871Z,18.12
2016-06-02T02:00:24.871Z,18.05
2016-06-02T02:00:34.889Z,18.11
2016-06-02T02:00:44.889Z,18.03
2016-06-02T02:00:54.889Z,18.08
2016-06-02T02:01:04.889Z,18.03
2016-06-02T02:01:14.905Z,18.07
2016-06-02T02:01:24.905Z,18.08
2016-06-02T02:01:34.907Z,18.1
2016-06-02T02:01:44.923Z,17.97
2016-06-02T02:01:54.923Z,18.08
2016-06-02T02:02:04.938Z,18.11
2016-06-02T02:02:14.938Z,18.14
2016-06-02T02:02:24.938Z,18.08
2016-06-02T02:02:34.972Z,18.02
2016-06-02T02:02:44.957Z,18.03
2016-06-02T02:02:54.957Z,17.97
2016-06-02T02:03:04.972Z,18
2016-06-02T02:03:14.972Z,17.96
2016-06-02T02:03:24.972Z,18
2016-06-02T02:03:34.975Z,17.96
2016-06-02T02:03:44.991Z,18
2016-06-02T02:03:54.991Z,18.03
2016-06-02T02:04:04.991Z,18
2016-06-02T02:04:15.007Z,18.03
2016-06-02T02:04:25.007Z,18.03
2016-06-02T02:04:35.025Z,18.02
2016-06-02T02:04:45.025Z,18.02
2016-06-02T02:04:55.041Z,18
2016-06-02T02:05:05.025Z,18.05
2016-06-02T02:05:15.041Z,18
2016-06-02T02:05:25.041Z,17.99
2016-06-02T02:05:34.887Z,18.02
2016-06-02T02:05:45.059Z,17.99
2016-06-02T02:05:55.074Z,17.89
2016-06-02T02:06:05.059Z,17.96
2016-06-02T02:06:15.074Z,17.89
2016-06-02T02:06:24.918Z,17.87
2016-06-02T02:06:35.077Z,17.86
2016-06-02T02:06:45.093Z,17.9
2016-06-02T02:06:55.093Z,17.96
2016-06-02T02:07:05.093Z,17.92
2016-06-02T02:07:15.093Z,17.84
2016-06-02T02:07:25.108Z,17.9
2016-06-02T02:07:35.126Z,17.96
2016-06-02T02:07:44.954Z,17.87
2016-06-02T02:07:55.142Z,17.93
2016-06-02T02:08:05.157Z,17.87
2016-06-02T02:08:15.142Z,17.89
2016-06-02T02:08:25.142Z,17.89
2016-06-02T02:08:35.146Z,17.92
2016-06-02T02:08:45.161Z,17.86
2016-06-02T02:08:55.161Z,17.99
2016-06-02T02:09:05.177Z,17.86
2016-06-02T02:09:15.161Z,17.97
2016-06-02T02:09:25.177Z,17.87
2016-06-02T02:09:35.305Z,17.97
2016-06-02T02:09:45.211Z,17.92